createdAt,value
2019-02-15T00:03:52.905Z,8.60
2019-02-15T00:06:43.224Z,8.63
2019-02-15T00:09:26.413Z,8.66
2019-02-15T00:12:16.637Z,8.68
2019-02-15T00:14:59.756Z,8.69
2019-02-15T00:18:08.985Z,8.70
2019-02-15T00:20:56.649Z,8.72
2019-02-15T00:23:47.023Z,8.69
2019-02-15T00:26:29.890Z,8.70
2019-02-15T00:29:20.237Z,8.66
2019-02-15T00:32:03.697Z,8.66
2019-02-15T00:34:54.031Z,8.57
2019-02-15T00:37:36.719Z,8.57
2019-02-15T00:40:27.071Z,8.59
2019-02-15T00:43:10.383Z,8.61
2019-02-15T00:46:19.582Z,8.60
2019-02-15T00:49:04.022Z,8.67
2019-02-15T00:52:06.105Z,8.66
2019-02-15T00:55:04.427Z,8.67
2019-02-15T00:58:05.925Z,8.64
2019-02-15T01:01:15.106Z,8.61
2019-02-15T01:04:16.591Z,8.65
2019-02-15T01:07:25.797Z,8.72
2019-02-15T01:10:27.576Z,8.75
2019-02-15T01:13:20.826Z,8.74
2019-02-15T01:16:03.940Z,8.72
2019-02-15T01:18:54.267Z,8.78
2019-02-15T01:21:36.830Z,8.77
2019-02-15T01:24:27.190Z,8.69
2019-02-15T01:27:29.026Z,8.71
2019-02-15T01:30:38.276Z,8.72
2019-02-15T01:33:40.133Z,8.67
2019-02-15T01:36:49.338Z,8.65
2019-02-15T01:39:52.619Z,8.60
2019-02-15T01:43:01.819Z,8.65
2019-02-15T01:45:54.354Z,8.70
2019-02-15T01:48:44.685Z,8.71
2019-02-15T01:51:27.685Z,8.70
2019-02-15T01:54:18.029Z,8.72
2019-02-15T01:57:01.419Z,8.76
2019-02-15T01:59:51.743Z,8.75
2019-02-15T02:02:35.252Z,8.79
2019-02-15T02:05:25.574Z,8.81
2019-02-15T02:08:11.528Z,8.79
2019-02-15T02:11:01.838Z,8.82
2019-02-15T02:13:49.757Z,8.72
2019-02-15T02:16:36.808Z,8.81
2019-02-15T02:19:19.928Z,8.84
2019-02-15T02:22:10.275Z,8.89
2019-02-15T02:24:53.332Z,8.91
2019-02-15T02:27:43.669Z,8.89
2019-02-15T02:30:26.278Z,8.89
2019-02-15T02:33:16.650Z,8.86
2019-02-15T02:35:59.222Z,8.84
2019-02-15T02:38:49.593Z,8.82
2019-02-15T02:41:32.783Z,8.88
2019-02-15T02:44:23.155Z,8.86
2019-02-15T02:47:06.489Z,8.84
2019-02-15T02:49:56.854Z,8.87
2019-02-15T02:52:39.857Z,8.88
2019-02-15T02:55:30.181Z,8.87
2019-02-15T02:58:12.730Z,8.85
2019-02-15T03:01:03.082Z,8.81
2019-02-15T03:03:45.777Z,8.74
2019-02-15T03:06:36.152Z,8.69
2019-02-15T03:09:18.818Z,8.68
2019-02-15T03:12:09.159Z,8.69
2019-02-15T03:14:51.656Z,8.67
2019-02-15T03:17:41.995Z,8.64
2019-02-15T03:20:31.186Z,8.62
2019-02-15T03:23:17.382Z,8.52
2019-02-15T03:26:00.764Z,8.41
2019-02-15T03:29:09.998Z,8.28
2019-02-15T03:31:52.874Z,8.22
2019-02-15T03:34:43.290Z,8.20
2019-02-15T03:37:44.831Z,8.05
2019-02-15T03:44:21.296Z,7.92
2019-02-15T03:50:38.121Z,7.98
2019-02-15T03:53:20.799Z,8.05
2019-02-15T03:56:11.186Z,8.19
2019-02-15T03:58:53.848Z,8.26
2019-02-15T04:01:44.233Z,8.23
2019-02-15T04:04:27.458Z,8.21
2019-02-15T04:07:17.805Z,8.18
2019-02-15T04:10:00.847Z,8.20
2019-02-15T04:12:51.255Z,8.20
2019-02-15T04:15:33.864Z,8.21
2019-02-15T04:18:24.282Z,8.16
2019-02-15T04:21:06.918Z,8.17
2019-02-15T04:23:57.293Z,8.23
2019-02-15T04:26:40.577Z,8.23
2019-02-15T04:29:30.941Z,8.28
2019-02-15T04:32:14.310Z,8.27
2019-02-15T04:35:04.773Z,8.32
2019-02-15T04:37:48.057Z,8.35
2019-02-15T04:40:38.414Z,8.38
2019-02-15T04:43:22.000Z,8.39
2019-02-15T04:46:12.387Z,8.40
2019-02-15T04:48:55.260Z,8.43
2019-02-15T04:51:45.594Z,8.44
2019-02-15T04:54:28.735Z,8.40
2019-02-15T04:57:19.134Z,8.39
2019-02-15T05:00:02.222Z,8.32
2019-02-15T05:02:52.571Z,8.29
2019-02-15T05:05:35.681Z,8.26
2019-02-15T05:08:25.987Z,8.21
2019-02-15T05:11:09.456Z,8.15
2019-02-15T05:13:59.760Z,8.10
2019-02-15T05:17:02.477Z,8.08
2019-02-15T05:19:45.160Z,8.11
2019-02-15T05:22:35.599Z,8.08
2019-02-15T05:25:38.481Z,7.97
2019-02-15T05:28:28.812Z,7.97
2019-02-15T05:31:11.356Z,7.88
2019-02-15T05:34:01.705Z,7.82
2019-02-15T05:36:44.995Z,7.76
2019-02-15T05:39:35.343Z,7.80
2019-02-15T05:42:18.256Z,7.78
2019-02-15T05:45:08.793Z,7.76
2019-02-15T05:47:51.967Z,7.68
2019-02-15T05:50:42.313Z,7.69
2019-02-15T05:53:26.368Z,7.65
2019-02-15T05:56:16.750Z,7.68
2019-02-15T05:59:00.182Z,7.59
2019-02-15T06:01:50.546Z,7.55
2019-02-15T06:04:40.910Z,7.58
2019-02-15T06:07:23.649Z,7.51
2019-02-15T06:10:14.018Z,7.48
2019-02-15T06:12:56.935Z,7.44
2019-02-15T06:15:47.330Z,7.30
2019-02-15T06:18:30.645Z,7.26
2019-02-15T06:21:20.968Z,7.28
2019-02-15T06:24:11.322Z,7.22
2019-02-15T06:26:53.962Z,7.22
2019-02-15T06:29:44.331Z,7.13
2019-02-15T06:32:27.536Z,7.16
2019-02-15T06:35:17.925Z,7.17
2019-02-15T06:38:01.235Z,7.16
2019-02-15T06:40:51.733Z,7.10
2019-02-15T06:43:34.395Z,7.10
2019-02-15T06:46:24.748Z,7.10
2019-02-15T06:49:08.040Z,7.09
2019-02-15T06:51:58.396Z,7.06
2019-02-15T06:54:42.397Z,7.02
2019-02-15T06:57:32.773Z,6.97
2019-02-15T07:00:34.528Z,6.99
2019-02-15T07:03:43.729Z,6.98
2019-02-15T07:06:26.631Z,7.01
2019-02-15T07:09:17.006Z,7.29
2019-02-15T07:11:59.561Z,7.52
2019-02-15T07:14:49.914Z,7.92
2019-02-15T07:17:32.875Z,8.23
2019-02-15T07:20:23.214Z,8.50
2019-02-15T07:23:06.445Z,8.82
2019-02-15T07:25:56.756Z,9.09
2019-02-15T07:28:59.871Z,9.36
2019-02-15T07:31:42.618Z,9.78
2019-02-15T07:34:32.957Z,10.38
2019-02-15T07:37:15.524Z,11.27
2019-02-15T07:40:06.375Z,12.84
2019-02-15T07:42:49.379Z,14.87
2019-02-15T07:45:42.881Z,16.09
2019-02-15T07:48:44.126Z,17.47
2019-02-15T07:51:34.449Z,18.39
2019-02-15T07:54:37.521Z,19.68
2019-02-15T07:57:27.870Z,21.01
2019-02-15T08:00:11.952Z,21.92
2019-02-15T08:03:02.321Z,23.18
2019-02-15T08:05:52.675Z,24.25
2019-02-15T08:08:35.377Z,24.45
2019-02-15T08:11:25.761Z,24.60
2019-02-15T08:14:14.813Z,25.15
2019-02-15T08:21:07.106Z,26.41
2019-02-15T08:23:49.585Z,27.09
2019-02-15T08:26:39.983Z,27.60
2019-02-15T08:29:23.099Z,27.47
2019-02-15T08:32:06.273Z,27.70
2019-02-15T08:34:56.642Z,27.61
2019-02-15T08:37:39.934Z,28.01
2019-02-15T08:43:39.067Z,28.45
2019-02-15T08:46:29.435Z,28.78
2019-02-15T08:49:12.010Z,28.42
2019-02-15T08:52:02.428Z,26.66
2019-02-15T08:54:45.749Z,25.40
2019-02-15T08:57:36.139Z,24.36
2019-02-15T09:00:18.790Z,23.97
2019-02-15T09:03:09.147Z,22.47
2019-02-15T09:05:52.389Z,22.96
2019-02-15T09:08:35.381Z,22.14
2019-02-15T09:11:25.765Z,20.82
2019-02-15T09:14:16.165Z,20.32
2019-02-15T09:16:58.666Z,19.91
2019-02-15T09:19:49.038Z,19.93
2019-02-15T09:22:31.829Z,19.83
2019-02-15T09:25:22.202Z,20.06
2019-02-15T09:31:35.944Z,19.98
2019-02-15T09:34:18.564Z,19.66
2019-02-15T09:37:08.966Z,19.77
2019-02-15T09:39:52.137Z,19.96
2019-02-15T09:42:35.021Z,19.82
2019-02-15T09:45:25.392Z,19.53
2019-02-15T09:48:08.301Z,19.96
2019-02-15T09:50:58.651Z,19.97
2019-02-15T09:53:42.014Z,19.77
2019-02-15T09:56:32.417Z,19.54
2019-02-15T09:59:15.051Z,19.68
2019-02-15T10:02:05.428Z,19.45
2019-02-15T10:04:48.423Z,18.79
2019-02-15T10:07:38.857Z,18.99
2019-02-15T10:10:24.088Z,19.05
2019-02-15T10:13:07.506Z,19.63
2019-02-15T10:15:57.842Z,19.76
2019-02-15T10:18:41.372Z,19.97
2019-02-15T10:24:33.824Z,20.61
2019-02-15T10:27:24.171Z,20.33
2019-02-15T10:30:07.736Z,20.54
2019-02-15T10:32:58.111Z,20.44
2019-02-15T10:35:40.917Z,19.55
2019-02-15T10:38:31.277Z,19.79
2019-02-15T10:41:14.014Z,19.78
2019-02-15T10:43:56.777Z,20.06
2019-02-15T10:46:47.136Z,20.06
2019-02-15T10:49:29.769Z,20.28
2019-02-15T10:52:20.130Z,20.73
2019-02-15T10:55:02.847Z,21.18
2019-02-15T10:57:53.216Z,21.17
2019-02-15T11:00:36.543Z,20.65
2019-02-15T11:03:26.860Z,20.52
2019-02-15T11:06:09.415Z,20.87
2019-02-15T11:08:59.882Z,21.14
2019-02-15T11:11:43.018Z,21.59
2019-02-15T11:14:33.385Z,22.08
2019-02-15T11:17:16.559Z,21.96
2019-02-15T11:20:08.559Z,21.60
2019-02-15T11:22:51.774Z,21.53
2019-02-15T11:25:42.478Z,21.55
2019-02-15T11:28:25.414Z,21.20
2019-02-15T11:31:17.022Z,20.52
2019-02-15T11:34:20.656Z,20.70
2019-02-15T11:37:11.016Z,20.25
2019-02-15T11:39:54.351Z,20.23
2019-02-15T11:42:44.718Z,19.95
2019-02-15T11:45:27.820Z,19.98
2019-02-15T11:48:18.187Z,20.38
2019-02-15T11:51:01.726Z,20.18
2019-02-15T11:53:52.116Z,20.17
2019-02-15T11:56:34.781Z,20.05
2019-02-15T11:59:25.174Z,20.02
2019-02-15T12:02:08.790Z,20.01
2019-02-15T12:04:59.148Z,20.19
2019-02-15T12:07:41.864Z,20.22
2019-02-15T12:10:32.208Z,20.46
2019-02-15T12:13:14.968Z,20.83
2019-02-15T12:16:05.308Z,21.41
2019-02-15T12:18:48.531Z,21.47
2019-02-15T12:21:38.876Z,21.60
2019-02-15T12:24:22.403Z,21.26
2019-02-15T12:27:12.805Z,20.95
2019-02-15T12:30:03.181Z,20.94
2019-02-15T12:33:05.949Z,21.22
2019-02-15T12:35:56.314Z,21.16
2019-02-15T12:38:38.900Z,21.22
2019-02-15T12:41:29.283Z,21.00
2019-02-15T12:44:11.835Z,20.95
2019-02-15T12:47:02.206Z,20.97
2019-02-15T12:49:45.159Z,21.23
2019-02-15T12:52:35.522Z,21.13
2019-02-15T12:55:18.198Z,20.94
2019-02-15T12:58:01.242Z,21.06
2019-02-15T13:00:51.617Z,20.98
2019-02-15T13:03:35.127Z,21.06
2019-02-15T13:06:28.795Z,21.22
2019-02-15T13:09:30.482Z,20.90
2019-02-15T13:12:20.847Z,20.95
2019-02-15T13:15:04.138Z,21.35
2019-02-15T13:17:54.605Z,21.37
2019-02-15T13:20:37.990Z,21.75
2019-02-15T13:23:28.352Z,21.50
2019-02-15T13:26:19.452Z,21.13
2019-02-15T13:29:09.807Z,21.22
2019-02-15T13:31:53.290Z,21.26
2019-02-15T13:34:43.620Z,21.78
2019-02-15T13:37:26.848Z,21.88
2019-02-15T13:40:17.245Z,21.56
2019-02-15T13:43:20.019Z,21.41
2019-02-15T14:03:27.088Z,21.98
2019-02-15T14:06:10.587Z,22.32
2019-02-15T14:08:53.862Z,22.50
2019-02-15T14:11:44.270Z,22.24
2019-02-15T14:14:27.367Z,22.06
2019-02-15T14:17:18.702Z,22.01
2019-02-15T14:20:02.292Z,22.10
2019-02-15T14:22:52.698Z,22.09
2019-02-15T14:25:35.313Z,22.08
2019-02-15T14:28:25.743Z,21.67
2019-02-15T14:31:10.383Z,21.70
2019-02-15T14:34:00.772Z,21.68
2019-02-15T14:36:44.113Z,21.59
2019-02-15T14:39:43.410Z,21.45
2019-02-15T14:42:14.808Z,21.77
2019-02-15T14:45:05.214Z,22.06
2019-02-15T14:47:54.571Z,21.83
2019-02-15T14:50:40.083Z,21.49
2019-02-15T14:53:23.610Z,21.35
2019-02-15T14:56:13.980Z,21.15
2019-02-15T14:58:57.302Z,21.25
2019-02-15T15:05:11.778Z,21.24
2019-02-15T15:08:02.538Z,21.48
2019-02-15T15:10:45.209Z,21.51
2019-02-15T15:16:40.090Z,20.69
2019-02-15T15:19:30.451Z,20.78
2019-02-15T15:22:14.004Z,20.96
2019-02-15T15:25:04.405Z,20.88
2019-02-15T15:27:48.125Z,20.79
2019-02-15T15:30:38.485Z,20.83
2019-02-15T15:33:21.163Z,20.80
2019-02-15T15:36:11.585Z,20.79
2019-02-15T15:38:54.342Z,20.67
2019-02-15T15:41:44.751Z,20.33
2019-02-15T15:44:28.326Z,20.21
2019-02-15T15:47:18.783Z,20.17
2019-02-15T15:50:02.242Z,20.05
2019-02-15T15:52:52.608Z,20.00
2019-02-15T15:55:35.782Z,19.74
2019-02-15T15:58:26.143Z,19.61
2019-02-15T16:01:09.051Z,19.54
2019-02-15T16:03:59.460Z,19.31
2019-02-15T16:06:42.869Z,19.13
2019-02-15T16:09:33.216Z,19.04
2019-02-15T16:12:16.556Z,18.98
2019-02-15T16:15:07.683Z,18.90
2019-02-15T16:17:58.088Z,18.90
2019-02-15T16:20:40.739Z,18.86
2019-02-15T16:23:31.154Z,18.73
2019-02-15T16:26:34.069Z,18.59
2019-02-15T16:29:26.543Z,18.51
2019-02-15T16:32:09.982Z,18.39
2019-02-15T16:34:52.836Z,18.30
2019-02-15T16:37:43.260Z,18.05
2019-02-15T16:40:26.507Z,17.78
2019-02-15T16:43:16.927Z,17.56
2019-02-15T16:46:00.501Z,17.37
2019-02-15T16:48:51.127Z,17.34
2019-02-15T16:51:34.354Z,17.12
2019-02-15T16:54:24.719Z,16.92
2019-02-15T16:57:27.567Z,16.82
2019-02-15T17:00:10.511Z,16.66
2019-02-15T17:03:00.866Z,16.53
2019-02-15T17:05:44.066Z,16.39
2019-02-15T17:08:34.448Z,16.30
2019-02-15T17:11:17.797Z,16.21
2019-02-15T17:14:08.187Z,16.03
2019-02-15T17:16:50.792Z,15.96
2019-02-15T17:19:41.134Z,15.83
2019-02-15T17:22:43.806Z,15.80
2019-02-15T17:25:34.203Z,15.68
2019-02-15T17:28:17.414Z,15.55
2019-02-15T17:31:07.792Z,15.48
2019-02-15T17:33:51.266Z,15.44
2019-02-15T17:36:41.582Z,15.36
2019-02-15T17:39:24.173Z,15.34
2019-02-15T17:42:14.631Z,15.28
2019-02-15T17:44:57.896Z,15.29
2019-02-15T17:47:48.237Z,15.14
2019-02-15T17:50:30.866Z,15.11
2019-02-15T17:53:21.257Z,15.14
2019-02-15T17:56:04.668Z,15.05
2019-02-15T17:58:55.006Z,14.99
2019-02-15T18:01:37.909Z,15.03
2019-02-15T18:04:28.294Z,14.88
2019-02-15T18:07:11.664Z,14.92
2019-02-15T18:09:55.223Z,14.88
2019-02-15T18:12:45.574Z,14.76
2019-02-15T18:15:28.198Z,14.74
2019-02-15T18:18:18.587Z,14.75
2019-02-15T18:21:09.021Z,14.69
2019-02-15T18:23:51.903Z,14.65
2019-02-15T18:26:42.351Z,14.59
2019-02-15T18:29:25.526Z,14.60
2019-02-15T18:32:16.045Z,14.56
2019-02-15T18:34:59.050Z,14.49
2019-02-15T18:37:49.394Z,14.48
2019-02-15T18:40:32.691Z,14.35
2019-02-15T18:43:23.101Z,14.40
2019-02-15T18:46:06.647Z,14.26
2019-02-15T18:48:57.021Z,14.29
2019-02-15T18:51:39.716Z,14.23
2019-02-15T18:54:30.064Z,14.18
2019-02-15T18:57:13.610Z,14.17
2019-02-15T19:00:04.008Z,14.10
2019-02-15T19:02:47.099Z,14.07
2019-02-15T19:05:37.515Z,14.00
2019-02-15T19:08:40.482Z,13.92
2019-02-15T19:11:30.896Z,13.84
2019-02-15T19:14:14.395Z,13.80
2019-02-15T19:16:57.877Z,13.76
2019-02-15T19:19:48.227Z,13.71
2019-02-15T19:22:31.005Z,13.63
2019-02-15T19:25:21.409Z,13.59
2019-02-15T19:28:04.159Z,13.61
2019-02-15T19:30:54.526Z,13.57
2019-02-15T19:33:57.955Z,13.52
2019-02-15T19:36:48.331Z,13.50
2019-02-15T19:39:31.493Z,13.47
2019-02-15T19:42:24.632Z,13.45
2019-02-15T19:45:09.181Z,13.45
2019-02-15T19:47:59.548Z,13.39
2019-02-15T19:50:42.187Z,13.35
2019-02-15T19:53:32.538Z,13.33
2019-02-15T19:56:22.920Z,13.34
2019-02-15T19:59:06.306Z,13.31
2019-02-15T20:01:56.704Z,13.27
2019-02-15T20:04:40.077Z,13.27
2019-02-15T20:07:11.409Z,13.23
2019-02-15T20:10:01.853Z,13.23
2019-02-15T20:12:44.470Z,13.24
2019-02-15T20:15:34.885Z,13.19
2019-02-15T20:18:17.530Z,13.24
2019-02-15T20:21:07.892Z,13.24
2019-02-15T20:23:50.839Z,13.26
2019-02-15T20:26:41.191Z,13.33
2019-02-15T20:29:24.265Z,13.31
2019-02-15T20:32:14.671Z,13.30
2019-02-15T20:34:57.487Z,13.20
2019-02-15T20:37:48.142Z,13.25
2019-02-15T20:40:52.256Z,13.21
2019-02-15T20:43:42.780Z,13.18
2019-02-15T20:46:25.685Z,13.21
2019-02-15T20:49:16.080Z,13.18
2019-02-15T20:51:59.124Z,13.16
2019-02-15T20:54:49.818Z,13.17
2019-02-15T20:57:32.939Z,13.16
2019-02-15T21:00:24.961Z,13.15
2019-02-15T21:03:08.554Z,13.13
2019-02-15T21:05:58.925Z,13.10
2019-02-15T21:08:41.833Z,13.08
2019-02-15T21:11:32.205Z,13.05
2019-02-15T21:14:14.932Z,13.00
2019-02-15T21:17:05.312Z,12.95
2019-02-15T21:19:48.436Z,13.05
2019-02-15T21:22:38.833Z,13.04
2019-02-15T21:25:22.327Z,12.94
2019-02-15T21:28:12.680Z,12.96
2019-02-15T21:30:55.568Z,12.95
2019-02-15T21:33:45.973Z,12.97
2019-02-15T21:36:29.517Z,12.94
2019-02-15T21:39:19.944Z,12.95
2019-02-15T21:42:02.786Z,12.93
2019-02-15T21:44:53.219Z,12.95
2019-02-15T21:47:36.516Z,12.91
2019-02-15T21:50:26.910Z,12.96
2019-02-15T21:53:12.208Z,12.95
2019-02-15T21:55:54.867Z,12.91
2019-02-15T21:58:45.246Z,12.93
2019-02-15T22:01:28.090Z,12.87
2019-02-15T22:04:18.471Z,12.79
2019-02-15T22:07:01.854Z,12.73
2019-02-15T22:09:52.270Z,12.79
2019-02-15T22:12:35.343Z,12.74
2019-02-15T22:15:18.859Z,12.74
2019-02-15T22:18:09.263Z,12.66
2019-02-15T22:20:52.338Z,12.67
2019-02-15T22:23:42.741Z,12.67
2019-02-15T22:26:25.912Z,12.65
2019-02-15T22:29:16.275Z,12.63
2019-02-15T22:31:59.768Z,12.55
2019-02-15T22:34:50.112Z,12.55
2019-02-15T22:37:33.321Z,12.53
2019-02-15T22:40:46.383Z,12.48
2019-02-15T22:43:29.331Z,12.43
2019-02-15T22:46:19.711Z,12.39
2019-02-15T22:49:03.040Z,12.39
2019-02-15T22:51:53.445Z,12.37
2019-02-15T22:54:36.524Z,12.29
2019-02-15T22:57:19.462Z,12.27
2019-02-15T23:00:50.135Z,12.28
2019-02-15T23:03:33.334Z,12.26
2019-02-15T23:06:23.731Z,12.25
2019-02-15T23:09:09.599Z,12.24
2019-02-15T23:11:52.444Z,12.30
2019-02-15T23:14:42.823Z,12.31
2019-02-15T23:17:25.556Z,12.30
2019-02-15T23:20:15.934Z,12.26
2019-02-15T23:22:59.121Z,12.21
2019-02-15T23:25:49.441Z,12.21
2019-02-15T23:28:32.743Z,12.14
2019-02-15T23:31:23.125Z,12.16
2019-02-15T23:34:06.682Z,12.09
2019-02-15T23:36:57.062Z,12.03
2019-02-15T23:39:39.680Z,12.03
2019-02-15T23:42:30.061Z,12.06
2019-02-15T23:45:12.808Z,12.01
2019-02-15T23:48:03.167Z,11.98
2019-02-15T23:50:54.387Z,12.01
2019-02-15T23:53:38.771Z,11.91
2019-02-15T23:56:21.615Z,11.84
2019-02-15T23:59:12.012Z,11.89
